sensor_id;sensor_type;location;lat;lon;timestamp;temperature;humidity
60723;DHT22;46574;52.818;6.516;2023-02-28T00:00:44;4.00;99.90
60723;DHT22;46574;52.818;6.516;2023-02-28T00:03:10;4.00;99.90
60723;DHT22;46574;52.818;6.516;2023-02-28T00:05:36;4.00;99.90
60723;DHT22;46574;52.818;6.516;2023-02-28T00:08:01;4.10;99.90
60723;DHT22;46574;52.818;6.516;2023-02-28T00:10:29;4.10;99.90
60723;DHT22;46574;52.818;6.516;2023-02-28T00:13:00;4.10;99.90
60723;DHT22;46574;52.818;6.516;2023-02-28T00:15:26;4.00;99.90
60723;DHT22;46574;52.818;6.516;2023-02-28T00:17:52;4.10;99.90
60723;DHT22;46574;52.818;6.516;2023-02-28T00:20:18;4.10;99.90
60723;DHT22;46574;52.818;6.516;2023-02-28T00:22:46;4.10;99.90
60723;DHT22;46574;52.818;6.516;2023-02-28T00:25:15;4.10;99.90
60723;DHT22;46574;52.818;6.516;2023-02-28T00:27:41;4.10;99.90
60723;DHT22;46574;52.818;6.516;2023-02-28T00:30:10;4.10;99.90
60723;DHT22;46574;52.818;6.516;2023-02-28T00:32:36;4.10;99.90
60723;DHT22;46574;52.818;6.516;2023-02-28T00:35:02;4.10;99.90
60723;DHT22;46574;52.818;6.516;2023-02-28T00:37:28;4.10;99.90
60723;DHT22;46574;52.818;6.516;2023-02-28T00:39:53;4.10;99.90
60723;DHT22;46574;52.818;6.516;2023-02-28T00:42:19;4.10;99.90
60723;DHT22;46574;52.818;6.516;2023-02-28T00:44:45;4.10;99.90
60723;DHT22;46574;52.818;6.516;2023-02-28T00:47:10;4.10;99.90
60723;DHT22;46574;52.818;6.516;2023-02-28T00:49:36;4.00;99.90
60723;DHT22;46574;52.818;6.516;2023-02-28T00:52:02;4.00;99.90
60723;DHT22;46574;52.818;6.516;2023-02-28T00:54:28;4.00;99.90
60723;DHT22;46574;52.818;6.516;2023-02-28T00:56:53;4.00;99.90
60723;DHT22;46574;52.818;6.516;2023-02-28T00:59:19;4.10;99.90
60723;DHT22;46574;52.818;6.516;2023-02-28T01:01:45;4.00;99.90
60723;DHT22;46574;52.818;6.516;2023-02-28T01:04:12;4.00;99.90
60723;DHT22;46574;52.818;6.516;2023-02-28T01:06:38;4.00;99.90
60723;DHT22;46574;52.818;6.516;2023-02-28T01:09:05;4.00;99.90
60723;DHT22;46574;52.818;6.516;2023-02-28T01:11:32;4.00;99.90
60723;DHT22;46574;52.818;6.516;2023-02-28T01:13:58;4.10;99.90
60723;DHT22;46574;52.818;6.516;2023-02-28T01:16:24;4.10;99.90
60723;DHT22;46574;52.818;6.516;2023-02-28T01:18:50;4.10;99.90
60723;DHT22;46574;52.818;6.516;2023-02-28T01:21:18;4.00;99.90
60723;DHT22;46574;52.818;6.516;2023-02-28T01:23:44;4.10;99.90
60723;DHT22;46574;52.818;6.516;2023-02-28T01:26:18;4.10;99.90
60723;DHT22;46574;52.818;6.516;2023-02-28T01:28:45;4.10;99.90
60723;DHT22;46574;52.818;6.516;2023-02-28T01:31:11;4.10;99.90
60723;DHT22;46574;52.818;6.516;2023-02-28T01:33:38;4.10;99.90
60723;DHT22;46574;52.818;6.516;2023-02-28T01:36:12;4.10;99.90
60723;DHT22;46574;52.818;6.516;2023-02-28T01:38:38;4.10;99.90
60723;DHT22;46574;52.818;6.516;2023-02-28T01:41:05;4.10;99.90
60723;DHT22;46574;52.818;6.516;2023-02-28T01:43:52;4.10;99.90
60723;DHT22;46574;52.818;6.516;2023-02-28T01:46:18;4.20;99.90
60723;DHT22;46574;52.818;6.516;2023-02-28T01:51:30;4.10;99.90
60723;DHT22;46574;52.818;6.516;2023-02-28T01:54:02;4.10;99.90
60723;DHT22;46574;52.818;6.516;2023-02-28T01:56:32;4.10;99.90
60723;DHT22;46574;52.818;6.516;2023-02-28T01:58:59;4.10;99.90
60723;DHT22;46574;52.818;6.516;2023-02-28T02:01:26;4.10;99.90
60723;DHT22;46574;52.818;6.516;2023-02-28T02:03:58;4.20;99.90
60723;DHT22;46574;52.818;6.516;2023-02-28T02:06:38;4.10;99.90
60723;DHT22;46574;52.818;6.516;2023-02-28T02:09:04;4.10;99.90
60723;DHT22;46574;52.818;6.516;2023-02-28T02:11:30;4.20;99.90
60723;DHT22;46574;52.818;6.516;2023-02-28T02:14:34;4.10;99.90
60723;DHT22;46574;52.818;6.516;2023-02-28T02:17:36;4.20;99.90
60723;DHT22;46574;52.818;6.516;2023-02-28T02:26:15;4.20;99.90
60723;DHT22;46574;52.818;6.516;2023-02-28T02:32:28;4.20;99.90
60723;DHT22;46574;52.818;6.516;2023-02-28T02:34:54;4.20;99.90
60723;DHT22;46574;52.818;6.516;2023-02-28T02:37:47;4.20;99.90
60723;DHT22;46574;52.818;6.516;2023-02-28T02:40:19;4.20;99.90
60723;DHT22;46574;52.818;6.516;2023-02-28T02:42:57;4.20;99.90
60723;DHT22;46574;52.818;6.516;2023-02-28T02:45:25;4.20;99.90
60723;DHT22;46574;52.818;6.516;2023-02-28T02:47:54;4.20;99.90
60723;DHT22;46574;52.818;6.516;2023-02-28T02:50:36;4.10;99.90
60723;DHT22;46574;52.818;6.516;2023-02-28T02:53:03;4.20;99.90
60723;DHT22;46574;52.818;6.516;2023-02-28T02:55:33;4.20;99.90
60723;DHT22;46574;52.818;6.516;2023-02-28T02:58:01;4.20;99.90
60723;DHT22;46574;52.818;6.516;2023-02-28T03:00:34;4.10;99.90
60723;DHT22;46574;52.818;6.516;2023-02-28T03:03:01;4.10;99.90
60723;DHT22;46574;52.818;6.516;2023-02-28T03:05:42;4.20;99.90
60723;DHT22;46574;52.818;6.516;2023-02-28T03:08:09;4.20;99.90
60723;DHT22;46574;52.818;6.516;2023-02-28T03:10:39;4.20;99.90
60723;DHT22;46574;52.818;6.516;2023-02-28T03:24:10;4.00;99.90
60723;DHT22;46574;52.818;6.516;2023-02-28T03:26:42;4.00;99.90
60723;DHT22;46574;52.818;6.516;2023-02-28T03:32:27;3.90;99.90
60723;DHT22;46574;52.818;6.516;2023-02-28T03:35:12;3.90;99.90
60723;DHT22;46574;52.818;6.516;2023-02-28T03:37:42;3.90;99.90
60723;DHT22;46574;52.818;6.516;2023-02-28T03:40:15;3.90;99.90
60723;DHT22;46574;52.818;6.516;2023-02-28T03:42:45;3.80;99.90
60723;DHT22;46574;52.818;6.516;2023-02-28T03:45:22;3.80;99.90
60723;DHT22;46574;52.818;6.516;2023-02-28T03:47:53;3.80;99.90
60723;DHT22;46574;52.818;6.516;2023-02-28T03:50:27;3.80;99.90
60723;DHT22;46574;52.818;6.516;2023-02-28T03:53:06;3.80;99.90
60723;DHT22;46574;52.818;6.516;2023-02-28T03:55:41;3.80;99.90
60723;DHT22;46574;52.818;6.516;2023-02-28T04:01:25;3.70;99.90
60723;DHT22;46574;52.818;6.516;2023-02-28T04:03:53;3.70;99.90
60723;DHT22;46574;52.818;6.516;2023-02-28T04:06:21;3.70;99.90
60723;DHT22;46574;52.818;6.516;2023-02-28T04:08:48;3.80;99.90
60723;DHT22;46574;52.818;6.516;2023-02-28T04:13:42;3.70;99.90
60723;DHT22;46574;52.818;6.516;2023-02-28T04:16:08;3.70;99.90
60723;DHT22;46574;52.818;6.516;2023-02-28T04:18:38;3.70;99.90
60723;DHT22;46574;52.818;6.516;2023-02-28T04:21:04;3.70;99.90
60723;DHT22;46574;52.818;6.516;2023-02-28T04:23:30;3.70;99.90
60723;DHT22;46574;52.818;6.516;2023-02-28T04:25:56;3.60;99.90
60723;DHT22;46574;52.818;6.516;2023-02-28T04:28:22;3.60;99.90
60723;DHT22;46574;52.818;6.516;2023-02-28T04:30:53;3.60;99.90
60723;DHT22;46574;52.818;6.516;2023-02-28T04:33:19;3.60;99.90
60723;DHT22;46574;52.818;6.516;2023-02-28T04:35:44;3.50;99.90
60723;DHT22;46574;52.818;6.516;2023-02-28T04:38:10;3.50;99.90
60723;DHT22;46574;52.818;6.516;2023-02-28T04:40:35;3.50;99.90
60723;DHT22;46574;52.818;6.516;2023-02-28T04:43:01;3.50;99.90
60723;DHT22;46574;52.818;6.516;2023-02-28T04:45:28;3.50;99.90
60723;DHT22;46574;52.818;6.516;2023-02-28T04:47:57;3.50;99.90
60723;DHT22;46574;52.818;6.516;2023-02-28T04:50:23;3.50;99.90
60723;DHT22;46574;52.818;6.516;2023-02-28T04:52:49;3.50;99.90
60723;DHT22;46574;52.818;6.516;2023-02-28T04:55:15;3.50;99.90
60723;DHT22;46574;52.818;6.516;2023-02-28T04:57:40;3.50;99.90
60723;DHT22;46574;52.818;6.516;2023-02-28T05:00:09;3.50;99.90
60723;DHT22;46574;52.818;6.516;2023-02-28T05:02:37;3.50;99.90
60723;DHT22;46574;52.818;6.516;2023-02-28T05:05:04;3.50;99.90
60723;DHT22;46574;52.818;6.516;2023-02-28T05:07:29;3.50;99.90
60723;DHT22;46574;52.818;6.516;2023-02-28T05:09:55;3.40;99.90
60723;DHT22;46574;52.818;6.516;2023-02-28T05:12:20;3.40;99.90
60723;DHT22;46574;52.818;6.516;2023-02-28T05:14:46;3.40;99.90
60723;DHT22;46574;52.818;6.516;2023-02-28T05:17:12;3.40;99.90
60723;DHT22;46574;52.818;6.516;2023-02-28T05:19:37;3.40;99.90
60723;DHT22;46574;52.818;6.516;2023-02-28T05:22:03;3.40;99.90
60723;DHT22;46574;52.818;6.516;2023-02-28T05:24:29;3.40;99.90
60723;DHT22;46574;52.818;6.516;2023-02-28T05:26:55;3.30;99.90
60723;DHT22;46574;52.818;6.516;2023-02-28T05:29:21;3.30;99.90
60723;DHT22;46574;52.818;6.516;2023-02-28T05:31:47;3.30;99.90
60723;DHT22;46574;52.818;6.516;2023-02-28T05:34:13;3.30;99.90
60723;DHT22;46574;52.818;6.516;2023-02-28T05:36:40;3.30;99.90
60723;DHT22;46574;52.818;6.516;2023-02-28T05:39:06;3.30;99.90
60723;DHT22;46574;52.818;6.516;2023-02-28T05:41:39;3.20;99.90
60723;DHT22;46574;52.818;6.516;2023-02-28T05:44:05;3.20;99.90
60723;DHT22;46574;52.818;6.516;2023-02-28T05:46:30;3.20;99.90
60723;DHT22;46574;52.818;6.516;2023-02-28T05:48:56;3.20;99.90
60723;DHT22;46574;52.818;6.516;2023-02-28T05:51:23;3.20;99.90
60723;DHT22;46574;52.818;6.516;2023-02-28T05:53:48;3.20;99.90
60723;DHT22;46574;52.818;6.516;2023-02-28T05:56:15;3.20;99.90
60723;DHT22;46574;52.818;6.516;2023-02-28T05:58:40;3.20;99.90
60723;DHT22;46574;52.818;6.516;2023-02-28T06:04:07;3.20;99.90
60723;DHT22;46574;52.818;6.516;2023-02-28T06:06:32;3.20;99.90
60723;DHT22;46574;52.818;6.516;2023-02-28T06:09:03;3.10;99.90
60723;DHT22;46574;52.818;6.516;2023-02-28T06:11:29;3.10;99.90
60723;DHT22;46574;52.818;6.516;2023-02-28T06:13:56;3.10;99.90
60723;DHT22;46574;52.818;6.516;2023-02-28T06:16:23;3.10;99.90
60723;DHT22;46574;52.818;6.516;2023-02-28T06:18:49;3.10;99.90
60723;DHT22;46574;52.818;6.516;2023-02-28T06:21:15;3.10;99.90
60723;DHT22;46574;52.818;6.516;2023-02-28T06:23:41;3.00;99.90
60723;DHT22;46574;52.818;6.516;2023-02-28T06:26:06;3.00;99.90
60723;DHT22;46574;52.818;6.516;2023-02-28T06:28:32;2.90;99.90
60723;DHT22;46574;52.818;6.516;2023-02-28T06:30:57;3.00;99.90
60723;DHT22;46574;52.818;6.516;2023-02-28T06:33:23;2.90;99.90
60723;DHT22;46574;52.818;6.516;2023-02-28T06:35:52;3.00;99.90
60723;DHT22;46574;52.818;6.516;2023-02-28T06:38:18;3.00;99.90
60723;DHT22;46574;52.818;6.516;2023-02-28T06:40:44;3.00;99.90
60723;DHT22;46574;52.818;6.516;2023-02-28T06:43:10;2.90;99.90
60723;DHT22;46574;52.818;6.516;2023-02-28T06:45:42;3.00;99.90
60723;DHT22;46574;52.818;6.516;2023-02-28T06:48:08;3.00;99.90
60723;DHT22;46574;52.818;6.516;2023-02-28T06:50:34;3.00;99.90
60723;DHT22;46574;52.818;6.516;2023-02-28T06:53:00;3.00;99.90
60723;DHT22;46574;52.818;6.516;2023-02-28T06:55:25;3.00;99.90
60723;DHT22;46574;52.818;6.516;2023-02-28T06:57:51;3.00;99.90
60723;DHT22;46574;52.818;6.516;2023-02-28T07:00:17;3.00;99.90
60723;DHT22;46574;52.818;6.516;2023-02-28T07:02:43;3.10;99.90
60723;DHT22;46574;52.818;6.516;2023-02-28T07:05:09;3.10;99.90
60723;DHT22;46574;52.818;6.516;2023-02-28T07:07:34;3.10;99.90
60723;DHT22;46574;52.818;6.516;2023-02-28T07:10:02;3.10;99.90
60723;DHT22;46574;52.818;6.516;2023-02-28T07:12:27;3.00;99.90
60723;DHT22;46574;52.818;6.516;2023-02-28T07:14:53;3.10;99.90
60723;DHT22;46574;52.818;6.516;2023-02-28T07:17:21;3.10;99.90
60723;DHT22;46574;52.818;6.516;2023-02-28T07:19:46;3.10;99.90
60723;DHT22;46574;52.818;6.516;2023-02-28T07:22:12;3.10;99.90
60723;DHT22;46574;52.818;6.516;2023-02-28T07:24:38;3.10;99.90
60723;DHT22;46574;52.818;6.516;2023-02-28T07:27:03;3.20;99.90
60723;DHT22;46574;52.818;6.516;2023-02-28T07:29:29;3.10;99.90
60723;DHT22;46574;52.818;6.516;2023-02-28T07:31:55;3.10;99.90
60723;DHT22;46574;52.818;6.516;2023-02-28T07:34:21;3.10;99.90
60723;DHT22;46574;52.818;6.516;2023-02-28T07:36:47;3.20;99.90
60723;DHT22;46574;52.818;6.516;2023-02-28T07:39:13;3.10;99.90
60723;DHT22;46574;52.818;6.516;2023-02-28T07:41:38;3.10;99.90
60723;DHT22;46574;52.818;6.516;2023-02-28T07:44:12;3.10;99.90
60723;DHT22;46574;52.818;6.516;2023-02-28T07:46:38;3.20;99.90
60723;DHT22;46574;52.818;6.516;2023-02-28T07:49:04;3.10;99.90
60723;DHT22;46574;52.818;6.516;2023-02-28T07:51:31;3.10;99.90
60723;DHT22;46574;52.818;6.516;2023-02-28T07:53:57;3.10;99.90
60723;DHT22;46574;52.818;6.516;2023-02-28T07:56:23;3.20;99.90
60723;DHT22;46574;52.818;6.516;2023-02-28T07:58:48;3.30;99.90
60723;DHT22;46574;52.818;6.516;2023-02-28T08:01:14;3.40;99.90
60723;DHT22;46574;52.818;6.516;2023-02-28T08:03:40;3.40;99.90
60723;DHT22;46574;52.818;6.516;2023-02-28T08:06:11;3.50;99.90
60723;DHT22;46574;52.818;6.516;2023-02-28T08:08:40;3.60;99.90
60723;DHT22;46574;52.818;6.516;2023-02-28T08:11:06;3.70;99.90
60723;DHT22;46574;52.818;6.516;2023-02-28T08:13:31;3.70;99.90
60723;DHT22;46574;52.818;6.516;2023-02-28T08:15:57;3.80;99.90
60723;DHT22;46574;52.818;6.516;2023-02-28T08:18:23;3.80;99.90
60723;DHT22;46574;52.818;6.516;2023-02-28T08:20:49;3.70;99.90
60723;DHT22;46574;52.818;6.516;2023-02-28T08:23:15;3.80;99.90
60723;DHT22;46574;52.818;6.516;2023-02-28T08:25:41;3.90;99.90
60723;DHT22;46574;52.818;6.516;2023-02-28T08:28:06;3.90;99.90
60723;DHT22;46574;52.818;6.516;2023-02-28T08:30:32;3.90;99.90
60723;DHT22;46574;52.818;6.516;2023-02-28T08:32:58;3.90;99.90
60723;DHT22;46574;52.818;6.516;2023-02-28T08:35:23;3.90;99.90
60723;DHT22;46574;52.818;6.516;2023-02-28T08:37:49;4.00;99.90
60723;DHT22;46574;52.818;6.516;2023-02-28T08:40:16;4.10;99.90
60723;DHT22;46574;52.818;6.516;2023-02-28T08:42:44;4.10;99.90
60723;DHT22;46574;52.818;6.516;2023-02-28T08:45:10;4.20;99.90
60723;DHT22;46574;52.818;6.516;2023-02-28T08:47:36;4.30;99.90
60723;DHT22;46574;52.818;6.516;2023-02-28T08:50:03;4.50;99.90
60723;DHT22;46574;52.818;6.516;2023-02-28T08:52:29;4.60;99.90
60723;DHT22;46574;52.818;6.516;2023-02-28T08:54:54;4.60;99.90
60723;DHT22;46574;52.818;6.516;2023-02-28T08:57:20;4.70;99.90
60723;DHT22;46574;52.818;6.516;2023-02-28T08:59:46;4.70;99.90
60723;DHT22;46574;52.818;6.516;2023-02-28T09:02:14;4.80;99.90
60723;DHT22;46574;52.818;6.516;2023-02-28T09:04:40;4.90;99.90
60723;DHT22;46574;52.818;6.516;2023-02-28T09:07:07;4.90;99.90
60723;DHT22;46574;52.818;6.516;2023-02-28T09:09:33;5.00;99.90
60723;DHT22;46574;52.818;6.516;2023-02-28T09:11:59;5.00;99.90
60723;DHT22;46574;52.818;6.516;2023-02-28T09:14:24;5.10;99.90
60723;DHT22;46574;52.818;6.516;2023-02-28T09:16:50;5.00;99.90
60723;DHT22;46574;52.818;6.516;2023-02-28T09:19:16;5.00;99.90
60723;DHT22;46574;52.818;6.516;2023-02-28T09:21:41;5.10;99.90
60723;DHT22;46574;52.818;6.516;2023-02-28T09:24:07;5.20;99.90
60723;DHT22;46574;52.818;6.516;2023-02-28T09:26:33;5.40;99.90
60723;DHT22;46574;52.818;6.516;2023-02-28T09:28:59;5.40;99.90
60723;DHT22;46574;52.818;6.516;2023-02-28T09:31:27;5.40;99.90
60723;DHT22;46574;52.818;6.516;2023-02-28T09:33:55;5.60;99.90
60723;DHT22;46574;52.818;6.516;2023-02-28T09:36:23;5.70;99.90
60723;DHT22;46574;52.818;6.516;2023-02-28T09:38:49;5.70;99.90
60723;DHT22;46574;52.818;6.516;2023-02-28T09:41:25;5.70;99.90
60723;DHT22;46574;52.818;6.516;2023-02-28T09:43:56;5.60;99.90
60723;DHT22;46574;52.818;6.516;2023-02-28T09:46:32;5.50;99.90
60723;DHT22;46574;52.818;6.516;2023-02-28T09:49:02;5.30;99.90
60723;DHT22;46574;52.818;6.516;2023-02-28T09:51:52;5.20;99.90
60723;DHT22;46574;52.818;6.516;2023-02-28T09:54:26;5.20;99.90
60723;DHT22;46574;52.818;6.516;2023-02-28T09:57:08;5.10;99.90
60723;DHT22;46574;52.818;6.516;2023-02-28T10:05:13;5.40;99.90
60723;DHT22;46574;52.818;6.516;2023-02-28T10:07:57;5.50;99.90
60723;DHT22;46574;52.818;6.516;2023-02-28T10:13:06;6.10;99.90
60723;DHT22;46574;52.818;6.516;2023-02-28T10:15:36;6.40;99.90
60723;DHT22;46574;52.818;6.516;2023-02-28T10:18:05;6.50;99.90
60723;DHT22;46574;52.818;6.516;2023-02-28T10:20:38;6.60;99.90
60723;DHT22;46574;52.818;6.516;2023-02-28T10:23:13;6.60;99.90
60723;DHT22;46574;52.818;6.516;2023-02-28T10:25:40;6.80;99.90
60723;DHT22;46574;52.818;6.516;2023-02-28T10:28:14;6.90;99.90
60723;DHT22;46574;52.818;6.516;2023-02-28T10:30:43;6.90;99.90
60723;DHT22;46574;52.818;6.516;2023-02-28T10:33:32;6.90;99.90
60723;DHT22;46574;52.818;6.516;2023-02-28T10:35:58;6.90;99.90
60723;DHT22;46574;52.818;6.516;2023-02-28T10:38:33;7.00;99.90
60723;DHT22;46574;52.818;6.516;2023-02-28T10:41:11;7.10;99.90
60723;DHT22;46574;52.818;6.516;2023-02-28T10:43:39;7.20;99.90
60723;DHT22;46574;52.818;6.516;2023-02-28T10:51:02;7.10;99.90
60723;DHT22;46574;52.818;6.516;2023-02-28T10:53:52;7.10;99.90
60723;DHT22;46574;52.818;6.516;2023-02-28T10:56:20;7.00;99.90
60723;DHT22;46574;52.818;6.516;2023-02-28T11:01:17;7.30;99.90
60723;DHT22;46574;52.818;6.516;2023-02-28T11:03:44;7.30;99.90
60723;DHT22;46574;52.818;6.516;2023-02-28T11:06:22;7.40;99.90
60723;DHT22;46574;52.818;6.516;2023-02-28T11:09:06;7.40;99.90
60723;DHT22;46574;52.818;6.516;2023-02-28T11:11:44;7.50;99.90
60723;DHT22;46574;52.818;6.516;2023-02-28T11:14:27;7.20;99.90
60723;DHT22;46574;52.818;6.516;2023-02-28T11:16:54;7.30;99.90
60723;DHT22;46574;52.818;6.516;2023-02-28T11:19:44;7.40;99.90
60723;DHT22;46574;52.818;6.516;2023-02-28T11:22:10;7.50;99.90
60723;DHT22;46574;52.818;6.516;2023-02-28T11:24:41;7.60;99.90
60723;DHT22;46574;52.818;6.516;2023-02-28T11:29:57;7.50;99.90
60723;DHT22;46574;52.818;6.516;2023-02-28T11:32:25;7.50;99.90
60723;DHT22;46574;52.818;6.516;2023-02-28T11:37:52;7.70;99.90
60723;DHT22;46574;52.818;6.516;2023-02-28T11:40:43;7.70;99.90
60723;DHT22;46574;52.818;6.516;2023-02-28T11:46:03;7.90;99.90
60723;DHT22;46574;52.818;6.516;2023-02-28T11:54:09;8.00;99.90
60723;DHT22;46574;52.818;6.516;2023-02-28T11:56:46;8.00;99.90
60723;DHT22;46574;52.818;6.516;2023-02-28T11:59:33;8.00;99.90
60723;DHT22;46574;52.818;6.516;2023-02-28T12:05:11;8.00;99.90
60723;DHT22;46574;52.818;6.516;2023-02-28T12:11:16;8.20;99.90
60723;DHT22;46574;52.818;6.516;2023-02-28T12:19:24;7.90;99.90
60723;DHT22;46574;52.818;6.516;2023-02-28T12:22:05;8.10;99.90
60723;DHT22;46574;52.818;6.516;2023-02-28T12:27:11;8.10;99.90
60723;DHT22;46574;52.818;6.516;2023-02-28T12:37:38;8.10;99.90
60723;DHT22;46574;52.818;6.516;2023-02-28T12:40:28;8.20;99.90
60723;DHT22;46574;52.818;6.516;2023-02-28T12:42:59;8.20;99.90
60723;DHT22;46574;52.818;6.516;2023-02-28T12:48:18;8.40;99.90
60723;DHT22;46574;52.818;6.516;2023-02-28T12:50:45;8.40;99.90
60723;DHT22;46574;52.818;6.516;2023-02-28T12:53:39;8.40;99.90
60723;DHT22;46574;52.818;6.516;2023-02-28T12:58:46;8.60;99.90
60723;DHT22;46574;52.818;6.516;2023-02-28T13:07:32;8.80;99.90
60723;DHT22;46574;52.818;6.516;2023-02-28T13:10:03;8.90;99.90
60723;DHT22;46574;52.818;6.516;2023-02-28T13:12:29;9.00;99.90
60723;DHT22;46574;52.818;6.516;2023-02-28T13:15:24;9.20;99.90
60723;DHT22;46574;52.818;6.516;2023-02-28T13:17:58;9.20;99.90
60723;DHT22;46574;52.818;6.516;2023-02-28T13:20:35;9.20;99.90
60723;DHT22;46574;52.818;6.516;2023-02-28T13:23:01;9.20;99.90
60723;DHT22;46574;52.818;6.516;2023-02-28T13:28:00;9.10;99.90
60723;DHT22;46574;52.818;6.516;2023-02-28T13:35:46;9.80;99.90
60723;DHT22;46574;52.818;6.516;2023-02-28T13:38:24;9.80;99.90
60723;DHT22;46574;52.818;6.516;2023-02-28T13:40:50;9.70;99.90
60723;DHT22;46574;52.818;6.516;2023-02-28T13:43:17;9.60;99.90
60723;DHT22;46574;52.818;6.516;2023-02-28T13:46:08;9.70;99.90
60723;DHT22;46574;52.818;6.516;2023-02-28T13:48:35;9.90;99.90
60723;DHT22;46574;52.818;6.516;2023-02-28T13:51:28;10.20;99.90
60723;DHT22;46574;52.818;6.516;2023-02-28T14:02:47;10.90;99.90
60723;DHT22;46574;52.818;6.516;2023-02-28T14:05:20;11.10;98.10
60723;DHT22;46574;52.818;6.516;2023-02-28T14:07:57;11.50;98.50
60723;DHT22;46574;52.818;6.516;2023-02-28T14:10:25;11.40;96.70
60723;DHT22;46574;52.818;6.516;2023-02-28T14:15:28;10.40;93.60
60723;DHT22;46574;52.818;6.516;2023-02-28T14:17:56;10.20;94.50
60723;DHT22;46574;52.818;6.516;2023-02-28T14:20:26;10.60;92.70
60723;DHT22;46574;52.818;6.516;2023-02-28T14:23:13;10.60;87.50
60723;DHT22;46574;52.818;6.516;2023-02-28T14:25:57;10.70;89.80
60723;DHT22;46574;52.818;6.516;2023-02-28T14:31:22;12.60;87.50
60723;DHT22;46574;52.818;6.516;2023-02-28T14:34:12;13.10;77.80
60723;DHT22;46574;52.818;6.516;2023-02-28T14:36:43;13.20;78.40
60723;DHT22;46574;52.818;6.516;2023-02-28T14:39:15;13.20;81.80
60723;DHT22;46574;52.818;6.516;2023-02-28T14:41:43;13.10;80.50
60723;DHT22;46574;52.818;6.516;2023-02-28T14:44:21;13.10;76.80
60723;DHT22;46574;52.818;6.516;2023-02-28T14:47:01;12.80;76.30
60723;DHT22;46574;52.818;6.516;2023-02-28T14:49:37;13.20;76.80
60723;DHT22;46574;52.818;6.516;2023-02-28T14:52:15;12.70;75.30
60723;DHT22;46574;52.818;6.516;2023-02-28T14:54:43;12.20;70.10
60723;DHT22;46574;52.818;6.516;2023-02-28T14:57:24;11.30;78.90
60723;DHT22;46574;52.818;6.516;2023-02-28T15:00:10;10.80;79.90
60723;DHT22;46574;52.818;6.516;2023-02-28T15:02:39;10.50;84.90
60723;DHT22;46574;52.818;6.516;2023-02-28T15:05:32;10.30;90.20
60723;DHT22;46574;52.818;6.516;2023-02-28T15:08:10;10.10;85.00
60723;DHT22;46574;52.818;6.516;2023-02-28T15:10:37;9.90;90.10
60723;DHT22;46574;52.818;6.516;2023-02-28T15:13:06;9.50;91.80
60723;DHT22;46574;52.818;6.516;2023-02-28T15:15:51;9.50;91.00
60723;DHT22;46574;52.818;6.516;2023-02-28T15:18:37;9.40;90.00
60723;DHT22;46574;52.818;6.516;2023-02-28T15:21:07;9.10;91.80
60723;DHT22;46574;52.818;6.516;2023-02-28T15:23:35;9.10;91.90
60723;DHT22;46574;52.818;6.516;2023-02-28T15:26:02;9.10;94.20
60723;DHT22;46574;52.818;6.516;2023-02-28T15:28:28;9.10;94.40
60723;DHT22;46574;52.818;6.516;2023-02-28T15:31:27;8.90;92.10
60723;DHT22;46574;52.818;6.516;2023-02-28T15:33:56;8.80;82.40
60723;DHT22;46574;52.818;6.516;2023-02-28T15:36:26;8.70;93.20
60723;DHT22;46574;52.818;6.516;2023-02-28T15:38:53;8.50;93.50
60723;DHT22;46574;52.818;6.516;2023-02-28T15:41:27;8.50;95.50
60723;DHT22;46574;52.818;6.516;2023-02-28T15:44:26;8.40;96.80
60723;DHT22;46574;52.818;6.516;2023-02-28T15:47:05;8.30;98.10
60723;DHT22;46574;52.818;6.516;2023-02-28T15:49:52;8.10;99.90
60723;DHT22;46574;52.818;6.516;2023-02-28T15:52:39;8.00;99.90
60723;DHT22;46574;52.818;6.516;2023-02-28T15:57:39;7.90;99.90
60723;DHT22;46574;52.818;6.516;2023-02-28T16:00:11;7.90;99.90
60723;DHT22;46574;52.818;6.516;2023-02-28T16:02:38;7.90;99.90
60723;DHT22;46574;52.818;6.516;2023-02-28T16:07:37;7.80;99.90
60723;DHT22;46574;52.818;6.516;2023-02-28T16:10:12;7.80;99.90
60723;DHT22;46574;52.818;6.516;2023-02-28T16:12:40;7.80;99.90
60723;DHT22;46574;52.818;6.516;2023-02-28T16:15:20;7.80;99.90
60723;DHT22;46574;52.818;6.516;2023-02-28T16:17:47;7.90;99.90
60723;DHT22;46574;52.818;6.516;2023-02-28T16:20:14;7.90;99.90
60723;DHT22;46574;52.818;6.516;2023-02-28T16:22:41;8.00;99.90
60723;DHT22;46574;52.818;6.516;2023-02-28T16:25:15;8.00;99.90
60723;DHT22;46574;52.818;6.516;2023-02-28T16:27:42;7.90;99.90
60723;DHT22;46574;52.818;6.516;2023-02-28T16:30:20;7.90;99.90
60723;DHT22;46574;52.818;6.516;2023-02-28T16:32:47;7.80;99.90
60723;DHT22;46574;52.818;6.516;2023-02-28T16:35:13;7.70;99.90
60723;DHT22;46574;52.818;6.516;2023-02-28T16:37:39;7.60;99.90
60723;DHT22;46574;52.818;6.516;2023-02-28T16:40:06;7.50;99.90
60723;DHT22;46574;52.818;6.516;2023-02-28T16:42:33;7.40;99.90
60723;DHT22;46574;52.818;6.516;2023-02-28T16:44:58;7.30;99.90
60723;DHT22;46574;52.818;6.516;2023-02-28T16:47:24;7.20;99.90
60723;DHT22;46574;52.818;6.516;2023-02-28T16:49:52;7.00;99.90
60723;DHT22;46574;52.818;6.516;2023-02-28T16:52:18;6.80;99.90
60723;DHT22;46574;52.818;6.516;2023-02-28T16:54:43;6.60;99.90
60723;DHT22;46574;52.818;6.516;2023-02-28T16:57:19;6.40;99.90
60723;DHT22;46574;52.818;6.516;2023-02-28T16:59:47;6.30;99.90
60723;DHT22;46574;52.818;6.516;2023-02-28T17:02:14;6.10;99.90
60723;DHT22;46574;52.818;6.516;2023-02-28T17:04:41;5.90;99.90
60723;DHT22;46574;52.818;6.516;2023-02-28T17:07:13;5.80;99.90
60723;DHT22;46574;52.818;6.516;2023-02-28T17:09:39;5.70;99.90
60723;DHT22;46574;52.818;6.516;2023-02-28T17:12:05;5.60;99.90
60723;DHT22;46574;52.818;6.516;2023-02-28T17:14:31;5.50;99.90
60723;DHT22;46574;52.818;6.516;2023-02-28T17:16:56;5.30;99.90
60723;DHT22;46574;52.818;6.516;2023-02-28T17:19:22;5.20;99.90
60723;DHT22;46574;52.818;6.516;2023-02-28T17:21:47;5.10;99.90
60723;DHT22;46574;52.818;6.516;2023-02-28T17:24:13;5.00;99.90
60723;DHT22;46574;52.818;6.516;2023-02-28T17:26:40;4.90;99.90
60723;DHT22;46574;52.818;6.516;2023-02-28T17:29:20;4.90;99.90
60723;DHT22;46574;52.818;6.516;2023-02-28T17:31:46;4.80;99.90
60723;DHT22;46574;52.818;6.516;2023-02-28T17:34:12;4.70;99.90
60723;DHT22;46574;52.818;6.516;2023-02-28T17:36:44;4.60;99.90
60723;DHT22;46574;52.818;6.516;2023-02-28T17:39:11;4.50;99.90
60723;DHT22;46574;52.818;6.516;2023-02-28T17:41:40;4.40;99.90
60723;DHT22;46574;52.818;6.516;2023-02-28T17:44:07;4.30;99.90
60723;DHT22;46574;52.818;6.516;2023-02-28T17:46:33;4.30;99.90
60723;DHT22;46574;52.818;6.516;2023-02-28T17:48:58;4.20;99.90
60723;DHT22;46574;52.818;6.516;2023-02-28T17:51:25;4.10;99.90
60723;DHT22;46574;52.818;6.516;2023-02-28T17:53:51;4.00;99.90
60723;DHT22;46574;52.818;6.516;2023-02-28T17:56:22;4.00;99.90
60723;DHT22;46574;52.818;6.516;2023-02-28T17:58:48;3.90;99.90
60723;DHT22;46574;52.818;6.516;2023-02-28T18:01:14;3.90;99.90
60723;DHT22;46574;52.818;6.516;2023-02-28T18:03:40;3.90;99.90
60723;DHT22;46574;52.818;6.516;2023-02-28T18:06:06;3.80;99.90
60723;DHT22;46574;52.818;6.516;2023-02-28T18:08:35;3.80;99.90